createdAt,value
2018-06-07T00:00:55.019Z,99.90
2018-06-07T00:03:22.539Z,99.90
2018-06-07T00:05:50.141Z,99.90
2018-06-07T00:08:17.873Z,99.90
2018-06-07T00:10:45.445Z,99.90
2018-06-07T00:13:13.221Z,99.90
2018-06-07T00:15:41.701Z,99.90
2018-06-07T00:18:09.422Z,99.90
2018-06-07T00:20:37.001Z,99.90
2018-06-07T00:23:04.547Z,99.90
2018-06-07T00:25:32.281Z,99.90
2018-06-07T00:27:59.897Z,99.90
2018-06-07T00:30:27.554Z,99.90
2018-06-07T00:32:55.080Z,99.90
2018-06-07T00:35:22.744Z,99.90
2018-06-07T00:37:50.308Z,99.90
2018-06-07T00:40:17.849Z,99.90
2018-06-07T00:42:45.414Z,99.90
2018-06-07T00:45:12.944Z,99.90
2018-06-07T00:47:40.550Z,99.90
2018-06-07T00:50:08.178Z,99.90
2018-06-07T00:52:35.845Z,99.90
2018-06-07T00:55:03.388Z,99.90
2018-06-07T00:57:30.980Z,99.90
2018-06-07T00:59:58.530Z,99.90
2018-06-07T01:02:26.084Z,99.90
2018-06-07T01:04:53.652Z,99.90
2018-06-07T01:07:21.197Z,99.90
2018-06-07T01:09:48.732Z,99.90
2018-06-07T01:12:16.324Z,99.90
2018-06-07T01:14:43.885Z,99.90
2018-06-07T01:17:11.584Z,99.90
2018-06-07T01:19:39.194Z,99.90
2018-06-07T01:22:06.754Z,99.90
2018-06-07T01:24:34.328Z,99.90
2018-06-07T01:27:01.877Z,99.90
2018-06-07T01:29:41.000Z,99.90
2018-06-07T01:33:23.757Z,99.90
2018-06-07T01:35:51.298Z,99.90
2018-06-07T01:39:26.653Z,99.90
2018-06-07T01:41:54.251Z,99.90
2018-06-07T01:44:21.793Z,99.90
2018-06-07T01:46:49.370Z,99.90
2018-06-07T01:49:16.897Z,99.90
2018-06-07T01:51:44.442Z,99.90
2018-06-07T01:54:12.004Z,99.90
2018-06-07T01:56:39.532Z,99.90
2018-06-07T01:59:07.112Z,99.90
2018-06-07T02:01:34.666Z,99.90
2018-06-07T02:04:02.201Z,99.90
2018-06-07T02:06:29.722Z,99.90
2018-06-07T02:08:57.395Z,99.90
2018-06-07T02:11:24.992Z,99.90
2018-06-07T02:13:52.653Z,99.90
2018-06-07T02:16:20.259Z,99.90
2018-06-07T02:18:47.947Z,99.90
2018-06-07T02:21:15.486Z,99.90
2018-06-07T02:23:43.137Z,99.90
2018-06-07T02:26:10.677Z,99.90
2018-06-07T02:28:38.225Z,99.90
2018-06-07T02:31:06.148Z,99.90
2018-06-07T02:33:33.702Z,99.90
2018-06-07T02:36:01.201Z,99.90
2018-06-07T02:38:28.772Z,99.90
2018-06-07T02:40:56.321Z,99.90
2018-06-07T02:43:23.859Z,99.90
2018-06-07T02:45:51.397Z,99.90
2018-06-07T02:50:46.421Z,99.90
2018-06-07T02:53:14.011Z,99.90
2018-06-07T02:55:41.594Z,99.90
2018-06-07T02:58:09.136Z,99.90
2018-06-07T03:00:36.780Z,99.90
2018-06-07T03:05:31.829Z,99.90
2018-06-07T03:07:59.389Z,99.90
2018-06-07T03:10:26.907Z,99.90
2018-06-07T03:12:54.464Z,99.90
2018-06-07T03:15:22.045Z,99.90
2018-06-07T03:17:49.569Z,99.90
2018-06-07T03:20:17.089Z,99.90
2018-06-07T03:22:44.691Z,99.90
2018-06-07T03:25:12.270Z,99.90
2018-06-07T03:27:39.849Z,99.90
2018-06-07T03:30:07.412Z,99.90
2018-06-07T03:32:34.995Z,99.90
2018-06-07T03:35:02.814Z,99.90
2018-06-07T03:37:30.422Z,99.90
2018-06-07T03:39:57.944Z,99.90
2018-06-07T03:42:25.470Z,99.90
2018-06-07T03:44:53.498Z,99.90
2018-06-07T03:47:21.088Z,99.90
2018-06-07T03:49:48.642Z,99.90
2018-06-07T03:52:16.349Z,99.90
2018-06-07T03:54:43.898Z,99.90
2018-06-07T03:59:38.988Z,99.90
2018-06-07T04:02:06.555Z,99.90
2018-06-07T04:04:34.104Z,99.90
2018-06-07T04:07:01.920Z,99.90
2018-06-07T04:09:29.496Z,99.90
2018-06-07T04:11:57.038Z,99.90
2018-06-07T04:14:24.659Z,99.90
2018-06-07T04:16:52.358Z,99.90
2018-06-07T04:19:19.979Z,99.90
2018-06-07T04:21:47.556Z,99.90
2018-06-07T04:24:15.150Z,99.90
2018-06-07T04:26:43.094Z,99.90
2018-06-07T04:29:10.698Z,99.90
2018-06-07T04:31:38.289Z,99.90
2018-06-07T04:34:05.990Z,99.90
2018-06-07T04:36:33.598Z,99.90
2018-06-07T04:39:01.260Z,99.90
2018-06-07T04:41:28.792Z,99.90
2018-06-07T04:43:56.387Z,99.90
2018-06-07T04:46:24.122Z,99.50
2018-06-07T04:51:19.415Z,92.30
2018-06-07T04:53:46.941Z,90.40
2018-06-07T04:56:14.777Z,86.50
2018-06-07T04:58:42.348Z,82.30
2018-06-07T05:01:09.888Z,77.90
2018-06-07T05:03:37.689Z,75.10
2018-06-07T05:06:05.277Z,72.50
2018-06-07T05:08:32.989Z,69.30
2018-06-07T05:11:00.545Z,65.80
2018-06-07T05:13:28.301Z,60.90
2018-06-07T05:15:55.921Z,59.90
2018-06-07T05:18:23.507Z,58.60
2018-06-07T05:20:51.079Z,56.90
2018-06-07T05:23:18.661Z,54.90
2018-06-07T05:25:46.481Z,54.40
2018-06-07T05:28:14.080Z,53.80
2018-06-07T05:30:41.749Z,54.10
2018-06-07T05:33:09.237Z,55.50
2018-06-07T05:35:36.883Z,54.50
2018-06-07T05:38:04.608Z,55.10
2018-06-07T05:40:32.692Z,55.30
2018-06-07T05:43:00.426Z,55.30
2018-06-07T05:45:27.956Z,55.10
2018-06-07T05:47:55.697Z,55.20
2018-06-07T05:50:23.269Z,55.30
2018-06-07T05:52:51.014Z,55.30
2018-06-07T05:55:18.622Z,55.00
2018-06-07T05:57:46.985Z,56.40
2018-06-07T06:00:14.599Z,57.10
2018-06-07T06:02:42.227Z,57.60
2018-06-07T06:05:09.802Z,58.10
2018-06-07T06:07:37.490Z,58.70
2018-06-07T06:10:05.062Z,59.00
2018-06-07T06:12:32.890Z,59.40
2018-06-07T06:15:00.501Z,59.70
2018-06-07T06:17:28.048Z,60.40
2018-06-07T06:19:55.610Z,60.10
2018-06-07T06:22:23.268Z,59.90
2018-06-07T06:24:50.837Z,59.60
2018-06-07T06:27:18.461Z,59.00
2018-06-07T06:29:46.026Z,58.70
2018-06-07T06:32:13.625Z,58.00
2018-06-07T06:34:41.258Z,57.20
2018-06-07T06:39:36.753Z,55.90
2018-06-07T06:42:04.473Z,55.20
2018-06-07T06:44:32.046Z,55.50
2018-06-07T06:46:59.595Z,55.20
2018-06-07T06:49:27.291Z,54.10
2018-06-07T06:51:54.854Z,53.30
2018-06-07T06:54:22.456Z,52.40
2018-06-07T06:56:50.372Z,51.30
2018-06-07T06:59:17.925Z,50.80
2018-06-07T07:01:45.459Z,50.70
2018-06-07T07:04:13.087Z,48.70
2018-06-07T07:06:40.776Z,48.60
2018-06-07T07:09:08.512Z,48.30
2018-06-07T07:11:36.067Z,48.30
2018-06-07T07:14:03.998Z,47.50
2018-06-07T07:18:59.300Z,45.30
2018-06-07T07:21:26.856Z,46.00
2018-06-07T07:23:54.428Z,45.50
2018-06-07T07:26:22.077Z,45.80
2018-06-07T07:28:49.652Z,44.30
2018-06-07T07:31:17.157Z,43.60
2018-06-07T07:33:44.748Z,43.80
2018-06-07T07:36:12.273Z,43.40
2018-06-07T07:38:39.864Z,43.30
2018-06-07T07:41:07.460Z,42.80
2018-06-07T07:43:35.121Z,40.90
2018-06-07T07:46:02.808Z,39.80
2018-06-07T07:48:30.411Z,40.80
2018-06-07T07:50:57.989Z,39.30
2018-06-07T07:53:26.366Z,38.40
2018-06-07T07:55:53.941Z,37.60
2018-06-07T07:58:21.477Z,36.50
2018-06-07T08:00:49.093Z,35.30
2018-06-07T08:03:16.690Z,34.80
2018-06-07T08:05:44.232Z,34.10
2018-06-07T08:08:11.810Z,34.20
2018-06-07T08:10:39.425Z,35.10
2018-06-07T08:13:06.954Z,36.10
2018-06-07T08:15:34.602Z,36.60
2018-06-07T08:18:02.177Z,36.80
2018-06-07T08:20:29.697Z,37.10
2018-06-07T08:22:57.237Z,37.10
2018-06-07T08:25:24.801Z,37.60
2018-06-07T08:27:52.361Z,38.40
2018-06-07T08:30:19.932Z,37.90
2018-06-07T08:32:47.557Z,37.90
2018-06-07T08:35:15.257Z,37.50
2018-06-07T08:37:42.815Z,36.60
2018-06-07T08:40:10.407Z,36.40
2018-06-07T08:42:38.041Z,36.70
2018-06-07T08:45:05.823Z,37.40
2018-06-07T08:47:33.466Z,38.70
2018-06-07T08:50:01.071Z,39.00
2018-06-07T08:52:28.625Z,39.60
2018-06-07T08:54:58.915Z,39.80
2018-06-07T08:57:26.834Z,40.00
2018-06-07T08:59:54.602Z,40.50
2018-06-07T09:02:22.164Z,40.80
2018-06-07T09:04:49.850Z,41.20
2018-06-07T09:07:17.398Z,41.70
2018-06-07T09:09:45.026Z,42.50
2018-06-07T09:12:12.608Z,43.10
2018-06-07T09:14:40.141Z,43.70
2018-06-07T09:17:07.852Z,44.50
2018-06-07T09:19:35.820Z,44.40
2018-06-07T09:22:03.571Z,44.70
2018-06-07T09:26:58.928Z,45.50
2018-06-07T09:29:26.570Z,45.70
2018-06-07T09:31:54.159Z,46.30
2018-06-07T09:34:21.889Z,46.50
2018-06-07T09:36:49.456Z,46.90
2018-06-07T09:39:17.083Z,47.10
2018-06-07T09:41:44.657Z,47.50
2018-06-07T09:44:12.228Z,47.40
2018-06-07T09:46:39.813Z,47.00
2018-06-07T09:49:07.573Z,47.60
2018-06-07T09:51:35.131Z,47.60
2018-06-07T09:54:02.716Z,47.90
2018-06-07T09:56:30.255Z,48.20
2018-06-07T09:58:57.794Z,48.80
2018-06-07T10:01:25.496Z,48.70
2018-06-07T10:03:53.056Z,48.50
2018-06-07T10:06:20.679Z,49.20
2018-06-07T10:08:55.054Z,49.50
2018-06-07T10:11:22.882Z,49.70
2018-06-07T10:13:50.452Z,49.30
2018-06-07T10:16:18.043Z,49.30
2018-06-07T10:18:45.684Z,49.30
2018-06-07T10:21:13.458Z,49.10
2018-06-07T10:26:08.780Z,48.80
2018-06-07T10:28:36.491Z,48.90
2018-06-07T10:31:04.093Z,48.80
2018-06-07T10:33:31.695Z,48.00
2018-06-07T10:35:59.224Z,47.70
2018-06-07T10:38:26.778Z,47.10
2018-06-07T10:40:54.313Z,46.90
2018-06-07T10:43:21.889Z,48.40
2018-06-07T10:45:49.530Z,48.40
2018-06-07T10:48:17.085Z,49.70
2018-06-07T10:50:44.886Z,49.50
2018-06-07T10:53:12.521Z,49.40
2018-06-07T10:55:40.122Z,49.40
2018-06-07T10:58:07.678Z,49.70
2018-06-07T11:00:35.264Z,49.50
2018-06-07T11:03:02.804Z,49.70
2018-06-07T11:05:30.334Z,49.50
2018-06-07T11:07:57.985Z,49.10
2018-06-07T11:10:25.550Z,49.80
2018-06-07T11:12:53.075Z,50.50
2018-06-07T11:15:20.676Z,51.30
2018-06-07T11:17:48.282Z,51.30
2018-06-07T11:20:15.856Z,51.50
2018-06-07T11:22:43.490Z,52.30
2018-06-07T11:25:11.067Z,52.00
2018-06-07T11:27:38.750Z,52.50
2018-06-07T11:30:06.398Z,52.80
2018-06-07T11:32:33.966Z,52.50
2018-06-07T11:35:01.546Z,52.50
2018-06-07T11:37:29.212Z,53.00
2018-06-07T11:39:56.779Z,52.90
2018-06-07T11:42:24.416Z,53.50
2018-06-07T11:44:52.002Z,54.10
2018-06-07T11:47:19.578Z,54.30
2018-06-07T11:49:47.229Z,54.20
2018-06-07T11:52:14.814Z,54.40
2018-06-07T11:54:42.556Z,54.20
2018-06-07T11:57:10.196Z,54.80
2018-06-07T11:59:37.974Z,55.10
2018-06-07T12:02:05.551Z,54.50
2018-06-07T12:04:33.158Z,54.70
2018-06-07T12:07:00.862Z,53.90
2018-06-07T12:09:29.023Z,53.70
2018-06-07T12:14:24.478Z,53.90
2018-06-07T12:16:52.086Z,54.40
2018-06-07T12:19:19.660Z,54.30
2018-06-07T12:21:47.364Z,54.20
2018-06-07T12:24:14.999Z,53.10
2018-06-07T12:26:42.690Z,53.40
2018-06-07T12:29:10.328Z,53.50
2018-06-07T12:31:37.944Z,54.20
2018-06-07T12:34:05.497Z,54.30
2018-06-07T12:36:33.123Z,54.20
2018-06-07T12:39:00.733Z,55.70
2018-06-07T12:41:28.350Z,56.80
2018-06-07T12:43:55.954Z,57.30
2018-06-07T12:46:23.568Z,57.00
2018-06-07T12:48:51.137Z,56.90
2018-06-07T12:51:18.717Z,58.70
2018-06-07T12:53:46.285Z,63.00
2018-06-07T12:58:41.989Z,76.40
2018-06-07T13:01:09.561Z,99.90
2018-06-07T13:03:37.296Z,99.90
2018-06-07T13:06:05.579Z,99.90
2018-06-07T13:08:33.172Z,99.90
2018-06-07T13:11:00.761Z,99.90
2018-06-07T13:13:28.365Z,99.90
2018-06-07T13:15:55.971Z,99.90
2018-06-07T13:18:23.533Z,99.90
2018-06-07T13:20:51.130Z,99.90
2018-06-07T13:23:18.741Z,99.90
2018-06-07T13:25:46.331Z,99.90
2018-06-07T13:28:13.957Z,99.90
2018-06-07T13:30:41.537Z,99.90
2018-06-07T13:33:09.162Z,99.90
2018-06-07T13:35:36.724Z,99.90
2018-06-07T13:38:04.349Z,99.90
2018-06-07T13:40:31.919Z,99.90
2018-06-07T13:42:59.581Z,99.90
2018-06-07T13:45:27.143Z,99.90
2018-06-07T13:47:54.697Z,99.90
2018-06-07T13:50:22.277Z,99.90
2018-06-07T13:52:49.871Z,99.90
2018-06-07T13:55:17.489Z,99.90
2018-06-07T13:57:45.373Z,99.90
2018-06-07T14:00:12.971Z,99.90
2018-06-07T14:02:40.573Z,99.90
2018-06-07T14:05:08.605Z,99.90
2018-06-07T14:07:36.270Z,99.90
2018-06-07T14:10:04.170Z,99.90
2018-06-07T14:12:31.821Z,99.90
2018-06-07T14:14:59.402Z,99.90
2018-06-07T14:17:27.145Z,99.90
2018-06-07T14:19:54.700Z,99.90
2018-06-07T14:22:22.272Z,99.90
2018-06-07T14:24:49.860Z,99.90
2018-06-07T14:27:17.482Z,99.90
2018-06-07T14:29:45.062Z,99.90
2018-06-07T14:32:12.686Z,99.90
2018-06-07T14:34:40.343Z,99.90
2018-06-07T14:37:07.960Z,99.90
2018-06-07T14:39:35.530Z,99.90
2018-06-07T14:42:03.347Z,99.90
2018-06-07T14:44:31.096Z,99.90
2018-06-07T14:46:58.703Z,99.90
2018-06-07T14:49:26.311Z,99.90
2018-06-07T14:51:53.860Z,99.90
2018-06-07T14:56:48.970Z,99.90
2018-06-07T14:59:16.533Z,99.90
2018-06-07T15:01:44.108Z,99.90
2018-06-07T15:04:11.839Z,99.90
2018-06-07T15:06:39.452Z,99.90
2018-06-07T15:09:07.750Z,99.90
2018-06-07T15:11:35.423Z,99.90
2018-06-07T15:14:03.021Z,99.90
2018-06-07T15:16:30.578Z,99.90
2018-06-07T15:21:25.744Z,99.90
2018-06-07T15:23:53.311Z,99.90
2018-06-07T15:26:20.991Z,99.90
2018-06-07T15:28:48.609Z,99.90
2018-06-07T15:31:16.243Z,99.90
2018-06-07T15:33:43.937Z,99.90
2018-06-07T15:36:11.809Z,99.90
2018-06-07T15:38:39.368Z,99.90
2018-06-07T15:41:07.059Z,99.90
2018-06-07T15:43:34.761Z,99.90
2018-06-07T15:46:02.369Z,99.90
2018-06-07T15:48:29.947Z,99.90
2018-06-07T15:50:57.507Z,99.90
2018-06-07T15:53:25.090Z,99.90
2018-06-07T15:55:52.837Z,99.90
2018-06-07T15:58:20.427Z,99.90
2018-06-07T16:00:47.994Z,99.90
2018-06-07T16:03:15.637Z,99.90
2018-06-07T16:05:43.238Z,99.90
2018-06-07T16:08:10.847Z,99.90
2018-06-07T16:10:38.612Z,99.90
2018-06-07T16:13:09.206Z,99.90
2018-06-07T16:15:36.842Z,99.90
2018-06-07T16:18:04.567Z,99.90
2018-06-07T16:20:32.158Z,99.90
2018-06-07T16:22:59.785Z,99.90
2018-06-07T16:25:27.403Z,99.90
2018-06-07T16:27:54.982Z,99.90
2018-06-07T16:30:23.449Z,99.90
2018-06-07T16:32:51.403Z,99.90
2018-06-07T16:35:18.994Z,99.90
2018-06-07T16:37:46.606Z,99.90
2018-06-07T16:40:14.206Z,99.90
2018-06-07T16:42:41.861Z,99.90
2018-06-07T16:45:09.396Z,99.90
2018-06-07T16:47:37.185Z,99.90
2018-06-07T16:50:05.286Z,99.90
2018-06-07T16:52:34.356Z,99.90
2018-06-07T16:55:02.047Z,99.90
2018-06-07T16:57:29.622Z,99.90
2018-06-07T16:59:57.292Z,99.90
2018-06-07T17:02:25.248Z,99.90
2018-06-07T17:04:53.540Z,99.90
2018-06-07T17:07:21.672Z,99.90
2018-06-07T17:09:49.382Z,99.90
2018-06-07T17:12:17.006Z,99.90
2018-06-07T17:14:44.648Z,99.90
2018-06-07T17:17:12.394Z,99.90
2018-06-07T17:19:40.088Z,99.90
2018-06-07T17:22:07.879Z,99.90
2018-06-07T17:24:35.494Z,99.90
2018-06-07T17:27:03.027Z,99.90
2018-06-07T17:29:30.568Z,99.90
2018-06-07T17:31:58.172Z,99.90
2018-06-07T17:34:26.007Z,99.90
2018-06-07T17:39:21.282Z,99.90
2018-06-07T17:41:48.878Z,99.90
2018-06-07T17:44:16.449Z,99.90
2018-06-07T17:46:44.041Z,99.90
2018-06-07T17:49:11.640Z,99.90
2018-06-07T17:51:39.255Z,99.90
2018-06-07T17:54:06.994Z,99.90
2018-06-07T17:56:34.666Z,99.90
2018-06-07T17:59:02.329Z,99.90
2018-06-07T18:01:29.949Z,99.90
2018-06-07T18:03:57.501Z,99.90
2018-06-07T18:06:25.077Z,99.90
2018-06-07T18:08:52.952Z,99.90
2018-06-07T18:11:20.745Z,99.90
2018-06-07T18:13:48.307Z,99.90
2018-06-07T18:16:15.913Z,99.90
2018-06-07T18:18:43.503Z,99.90
2018-06-07T18:21:11.116Z,99.90
2018-06-07T18:23:38.931Z,99.90
2018-06-07T18:26:06.603Z,99.90
2018-06-07T18:28:34.490Z,99.90
2018-06-07T18:31:02.467Z,99.90
2018-06-07T18:33:30.297Z,99.90
2018-06-07T18:35:57.869Z,99.90
2018-06-07T18:38:25.441Z,99.90
2018-06-07T18:40:53.019Z,99.90
2018-06-07T18:43:20.726Z,99.90
2018-06-07T18:45:48.433Z,99.90
2018-06-07T18:48:16.012Z,99.90
2018-06-07T18:50:43.648Z,99.90
2018-06-07T18:53:11.307Z,99.90
2018-06-07T18:55:40.336Z,99.90
2018-06-07T18:58:09.438Z,99.90
2018-06-07T19:00:37.162Z,99.90
2018-06-07T19:03:04.794Z,99.90
2018-06-07T19:05:32.445Z,99.90
2018-06-07T19:08:00.066Z,99.90
2018-06-07T19:10:27.638Z,99.90
2018-06-07T19:12:55.200Z,99.90
2018-06-07T19:15:22.922Z,99.90
2018-06-07T19:20:24.003Z,99.90
2018-06-07T19:22:51.610Z,99.90
2018-06-07T19:25:24.906Z,99.90
2018-06-07T19:27:52.682Z,99.90
2018-06-07T19:30:20.394Z,99.90
2018-06-07T19:32:53.719Z,99.90
2018-06-07T19:35:21.351Z,99.90
2018-06-07T19:37:48.985Z,99.90
2018-06-07T19:40:22.575Z,99.90
2018-06-07T19:42:50.156Z,99.90
2018-06-07T19:45:17.770Z,99.90
2018-06-07T19:47:45.624Z,99.90
2018-06-07T19:50:13.370Z,99.90
2018-06-07T19:52:40.970Z,99.90
2018-06-07T19:55:08.817Z,99.90
2018-06-07T19:57:36.925Z,99.90
2018-06-07T20:00:06.151Z,99.90
2018-06-07T20:02:36.078Z,99.90
2018-06-07T20:05:04.048Z,99.90
2018-06-07T20:07:31.681Z,99.90
2018-06-07T20:09:59.412Z,99.90
2018-06-07T20:12:27.004Z,99.90
2018-06-07T20:14:54.629Z,99.90
2018-06-07T20:17:22.275Z,99.90
2018-06-07T20:19:49.877Z,99.90
2018-06-07T20:22:17.465Z,99.90
2018-06-07T20:24:45.101Z,99.90
2018-06-07T20:27:13.734Z,99.90
2018-06-07T20:29:41.347Z,99.90
2018-06-07T20:32:09.454Z,99.90
2018-06-07T20:34:37.133Z,99.90
2018-06-07T20:37:04.911Z,99.90
2018-06-07T20:39:32.579Z,99.90
2018-06-07T20:42:00.166Z,99.90
2018-06-07T20:44:27.734Z,99.90
2018-06-07T20:46:55.381Z,99.90
2018-06-07T20:51:50.534Z,99.90
2018-06-07T20:54:18.129Z,99.90
2018-06-07T20:56:45.694Z,99.90
2018-06-07T20:59:13.276Z,99.90
2018-06-07T21:01:40.892Z,99.90
2018-06-07T21:04:08.479Z,99.90
2018-06-07T21:06:36.062Z,99.90
2018-06-07T21:09:06.695Z,99.90
2018-06-07T21:11:34.264Z,99.90
2018-06-07T21:14:01.871Z,99.90
2018-06-07T21:16:29.446Z,99.90
2018-06-07T21:18:57.002Z,99.90
2018-06-07T21:21:24.594Z,99.90
2018-06-07T21:23:52.198Z,99.90
2018-06-07T21:26:19.758Z,99.90
2018-06-07T21:28:47.431Z,99.90
2018-06-07T21:31:15.044Z,99.90
2018-06-07T21:33:42.647Z,99.90
2018-06-07T21:36:10.225Z,99.90
2018-06-07T21:38:37.853Z,99.90
2018-06-07T21:41:05.459Z,99.90
2018-06-07T21:43:33.059Z,99.90
2018-06-07T21:46:00.805Z,99.90
2018-06-07T21:48:28.351Z,99.90
2018-06-07T21:50:55.885Z,99.90
2018-06-07T21:53:23.513Z,99.90
2018-06-07T21:55:51.059Z,99.90
2018-06-07T21:58:18.602Z,99.90
2018-06-07T22:00:46.203Z,99.90
2018-06-07T22:03:13.793Z,99.90
2018-06-07T22:05:41.381Z,99.90
2018-06-07T22:08:09.051Z,99.90
2018-06-07T22:10:36.667Z,99.90
2018-06-07T22:13:04.265Z,99.90
2018-06-07T22:15:31.845Z,99.90
2018-06-07T22:17:59.394Z,99.90
2018-06-07T22:22:54.519Z,99.90
2018-06-07T22:25:22.087Z,99.90
2018-06-07T22:27:49.692Z,99.90
2018-06-07T22:30:17.414Z,99.90
2018-06-07T22:32:45.022Z,99.90
2018-06-07T22:35:12.557Z,99.90
2018-06-07T22:37:40.233Z,99.90
2018-06-07T22:40:07.770Z,99.90
2018-06-07T22:42:35.823Z,99.90
2018-06-07T22:45:03.461Z,99.90
2018-06-07T22:47:31.025Z,99.90
2018-06-07T22:49:58.597Z,99.90
2018-06-07T22:52:26.606Z,99.90
2018-06-07T22:54:54.193Z,99.90
2018-06-07T22:57:21.734Z,99.90
2018-06-07T22:59:49.330Z,99.90
2018-06-07T23:02:16.909Z,99.90
2018-06-07T23:04:44.485Z,99.90
2018-06-07T23:07:12.071Z,99.90
2018-06-07T23:09:39.664Z,99.90
2018-06-07T23:12:07.419Z,99.90
2018-06-07T23:14:35.211Z,99.90
2018-06-07T23:17:02.789Z,99.90
2018-06-07T23:19:30.339Z,99.90
2018-06-07T23:21:57.937Z,99.90
2018-06-07T23:24:25.516Z,99.90
2018-06-07T23:26:53.062Z,99.90
2018-06-07T23:29:20.666Z,99.90
2018-06-07T23:31:48.234Z,99.90
2018-06-07T23:34:15.808Z,99.90
2018-06-07T23:36:43.504Z,99.90
2018-06-07T23:39:11.068Z,99.90
2018-06-07T23:41:38.686Z,99.90
2018-06-07T23:44:06.290Z,99.90
2018-06-07T23:46:33.856Z,99.90
2018-06-07T23:49:01.410Z,99.90
2018-06-07T23:51:29.006Z,99.90
2018-06-07T23:53:56.592Z,99.90
2018-06-07T23:56:25.096Z,99.90
